F\v Tenia — FPMH — position and weather

sailwx.info

Track history (hours):
 
Tides and Currents Weather Stations Pressure Air Temp Water Temp Dewpoint Dewpoint Depression Visibility Wind Speed Wind Dir Waves Ship Positions

F\v Tenia

Last reported at 2017-Mar-20 16:19 UTC. Time now 2017-Mar-23 16:17 UTC.
Position N 46°06' W 001°23'.

Length 22 m; draft 4 m.

Type: Fishing. MMSI: 227575000.

Date/timePositionNaut miles runAvg speedWind from/ knotsBaromVisibWave heightAir tempDewpointWater temp
2017-Mar-20 16:19N 46°06' W 001°23'5 7.2
2017-Mar-20 15:34N 46°08' W 001°15'2 1.9
2017-Mar-20 14:33N 46°09' W 001°13'0 0.0
2017-Mar-20 13:33N 46°09' W 001°13'0 0.0
2017-Mar-20 12:32N 46°09' W 001°13'0 0.0
2017-Mar-20 11:34N 46°09' W 001°13'3 2.8
2017-Mar-20 10:34N 46°07' W 001°16'8 8.3
2017-Mar-20 09:33N 46°05' W 001°28'  
2017-Mar-17 01:26N 44°52' W 002°22'84 8.4
2017-Mar-16 15:25N 43°31' W 001°48'7 8.5
2017-Mar-16 14:34N 43°24' W 001°47'2 1.9
2017-Mar-16 13:34N 43°22' W 001°47'0 0.0
2017-Mar-16 12:33N 43°22' W 001°47'0 0.0
2017-Mar-16 11:33N 43°22' W 001°47'0 0.0
2017-Mar-16 10:33N 43°22' W 001°47'0 0.0
2017-Mar-16 09:34N 43°22' W 001°47'0 0.0
2017-Mar-16 08:33N 43°22' W 001°47'0 0.0
2017-Mar-16 07:34N 43°22' W 001°47'0 0.0
2017-Mar-16 06:33N 43°22' W 001°47'0 0.0
2017-Mar-16 05:34N 43°22' W 001°47'0 0.0
2017-Mar-16 04:33N 43°22' W 001°47'0 0.0
2017-Mar-16 03:34N 43°22' W 001°47'0 0.0
2017-Mar-16 02:34N 43°22' W 001°47'0 0.0
2017-Mar-16 01:33N 43°22' W 001°47'1 1.4
2017-Mar-16 00:33N 43°23' W 001°46'0 0.3
2017-Mar-15 23:33N 43°23' W 001°47'1 0.8
2017-Mar-15 22:33N 43°23' W 001°47'3 2.6
2017-Mar-15 21:33N 43°24' W 001°51'  
Track history (hours):
 
Tides and Currents Weather Stations Pressure Air Temp Water Temp Dewpoint Dewpoint Depression Visibility Wind Speed Wind Dir Waves Ship Positions

F\v Tenia

Last reported at 2017-Mar-20 16:19 UTC. Time now 2017-Mar-23 16:17 UTC.
Position N 46°06' W 001°23'.

Length 22 m; draft 4 m.

Type: Fishing. MMSI: 227575000.

Date/timePositionNaut miles runAvg speedWind from/ knotsBaromVisibWave heightAir tempDewpointWater temp
2017-Mar-20 16:19N 46°06' W 001°23'5 7.2
2017-Mar-20 15:34N 46°08' W 001°15'2 1.9
2017-Mar-20 14:33N 46°09' W 001°13'0 0.0
2017-Mar-20 13:33N 46°09' W 001°13'0 0.0
2017-Mar-20 12:32N 46°09' W 001°13'0 0.0
2017-Mar-20 11:34N 46°09' W 001°13'3 2.8
2017-Mar-20 10:34N 46°07' W 001°16'8 8.3
2017-Mar-20 09:33N 46°05' W 001°28'  
2017-Mar-17 01:26N 44°52' W 002°22'84 8.4
2017-Mar-16 15:25N 43°31' W 001°48'7 8.5
2017-Mar-16 14:34N 43°24' W 001°47'2 1.9
2017-Mar-16 13:34N 43°22' W 001°47'0 0.0
2017-Mar-16 12:33N 43°22' W 001°47'0 0.0
2017-Mar-16 11:33N 43°22' W 001°47'0 0.0
2017-Mar-16 10:33N 43°22' W 001°47'0 0.0
2017-Mar-16 09:34N 43°22' W 001°47'0 0.0
2017-Mar-16 08:33N 43°22' W 001°47'0 0.0
2017-Mar-16 07:34N 43°22' W 001°47'0 0.0
2017-Mar-16 06:33N 43°22' W 001°47'0 0.0
2017-Mar-16 05:34N 43°22' W 001°47'0 0.0
2017-Mar-16 04:33N 43°22' W 001°47'0 0.0
2017-Mar-16 03:34N 43°22' W 001°47'0 0.0
2017-Mar-16 02:34N 43°22' W 001°47'0 0.0
2017-Mar-16 01:33N 43°22' W 001°47'1 1.4
2017-Mar-16 00:33N 43°23' W 001°46'0 0.3
2017-Mar-15 23:33N 43°23' W 001°47'1 0.8
2017-Mar-15 22:33N 43°23' W 001°47'3 2.6
2017-Mar-15 21:33N 43°24' W 001°51'  

Dump ship's entire track history